Monday, December 10, 2018, 10:05 PM EST
Back to Local

KIJD, Willimantic Windham Airport

Location: North Windham, CT, United States Lat: 41.75
Local Time: 10:05 PM EST ( 3:05 GMT) Lon: -72.183
Time Zone: US/Eastern Elev: 246 ft

Show me the last for .
Show Decoded

2018-12-10 20:52 METAR KIJD 110152Z AUTO 00000KT 10SM CLR M06/M08 A3016 RMK AO2 SLP217 T10611078
                 =
2018-12-10 19:52 METAR KIJD 110052Z AUTO 00000KT 10SM CLR M06/M08 A3016 RMK AO2 SLP218 T10561078
                 =
2018-12-10 18:52 METAR KIJD 102352Z AUTO 00000KT 10SM CLR M04/M08 A3015 RMK AO2 SLP213 T10391083
                 10033 21044 53013 =
2018-12-10 17:52 METAR KIJD 102252Z AUTO 03003KT 10SM CLR M04/M08 A3013 RMK AO2 SLP207 T10391078
                 =
2018-12-10 16:52 METAR KIJD 102152Z AUTO 00000KT 10SM CLR M01/M08 A3012 RMK AO2 SLP202 T10061083
                 =
2018-12-10 15:52 METAR KIJD 102052Z AUTO 34006KT 10SM CLR 02/M08 A3011 RMK AO2 SLP199 T00171078
                 53006 =
2018-12-10 14:52 METAR KIJD 101952Z AUTO 32007KT 10SM CLR 03/M07 A3009 RMK AO2 SLP193 T00281072 =
2018-12-10 13:52 METAR KIJD 101852Z AUTO 02008KT 10SM CLR 03/M08 A3009 RMK AO2 SLP191 T00331078 =
2018-12-10 12:52 METAR KIJD 101752Z AUTO 36009KT 10SM CLR 03/M07 A3009 RMK AO2 SLP192 T00281072
                 10028 21100 56013 =
2018-12-10 11:52 METAR KIJD 101652Z AUTO 03011KT 10SM CLR 02/M07 A3010 RMK AO2 SLP194 T00221072 =
2018-12-10 10:52 METAR KIJD 101552Z AUTO 03012G19KT 10SM CLR 01/M07 A3011 RMK AO2 SLP200
                 T00111072 =
2018-12-10 09:52 METAR KIJD 101452Z AUTO 00000KT 10SM CLR M02/M06 A3013 RMK AO2 SLP205 T10171056
                 53009 =
2018-12-10 08:52 METAR KIJD 101352Z AUTO 00000KT 10SM CLR M07/M08 A3012 RMK AO2 SLP202 T10671078
                 =
2018-12-10 07:52 METAR KIJD 101252Z AUTO 00000KT 9SM CLR M09/M10 A3011 RMK AO2 SLP199 T10941100 =
2018-12-10 06:52 METAR KIJD 101152Z AUTO 00000KT 9SM CLR M10/M11 A3010 RMK AO2 SLP196 I1000 I6000
                 T11001106 11067 21106 53004 =
2018-12-10 05:52 METAR KIJD 101052Z AUTO 00000KT 9SM CLR M09/M10 A3009 RMK AO2 SLP192 T10941100 =
2018-12-10 04:52 METAR KIJD 100952Z AUTO 06003KT 8SM CLR M09/M09 A3008 RMK AO2 SLP188 I1000
                 T10891094 =
2018-12-10 03:52 METAR KIJD 100852Z AUTO 00000KT 9SM CLR M08/M09 A3009 RMK AO2 SLP191 I1000 I3000
                 T10831089 58007 =
2018-12-10 02:52 METAR KIJD 100752Z AUTO 00000KT 10SM CLR M08/M09 A3011 RMK AO2 SLP198 T10781089
                 =
2018-12-10 01:52 METAR KIJD 100652Z AUTO 00000KT 10SM CLR M07/M09 A3011 RMK AO2 SLP198 T10721089
                 =
2018-12-10 00:52 METAR KIJD 100552Z AUTO 05003KT 10SM CLR M07/M09 A3011 RMK AO2 SLP199 T10721089
                 11022 21078 58021 =
2018-12-09 23:52 METAR KIJD 100452Z AUTO 05004KT 10SM CLR M06/M08 A3013 RMK AO2 SLP207 T10561078
                 400061117 =
2018-12-09 22:52 METAR KIJD 100352Z AUTO 00000KT 10SM CLR M06/M08 A3017 RMK AO2 SLP218 T10561078
                 =

Support USWX by starting your Amazon purchase here.